sensor_id;sensor_type;location;lat;lon;timestamp;P1;durP1;ratioP1;P2;durP2;ratioP2
15929;SDS011;8064;51.142;4.780;2023-12-14T00:02:25;31.87;;;18.23;;
15929;SDS011;8064;51.142;4.780;2023-12-14T00:04:51;30.40;;;19.03;;
15929;SDS011;8064;51.142;4.780;2023-12-14T00:07:17;28.53;;;18.50;;
15929;SDS011;8064;51.142;4.780;2023-12-14T00:09:42;33.20;;;18.90;;
15929;SDS011;8064;51.142;4.780;2023-12-14T00:12:08;31.63;;;20.10;;
15929;SDS011;8064;51.142;4.780;2023-12-14T00:14:34;31.10;;;19.53;;
15929;SDS011;8064;51.142;4.780;2023-12-14T00:17:00;27.67;;;20.27;;
15929;SDS011;8064;51.142;4.780;2023-12-14T00:19:26;36.03;;;21.03;;
15929;SDS011;8064;51.142;4.780;2023-12-14T00:21:51;34.60;;;21.13;;
15929;SDS011;8064;51.142;4.780;2023-12-14T00:24:17;32.50;;;20.80;;
15929;SDS011;8064;51.142;4.780;2023-12-14T00:26:43;37.20;;;22.17;;
15929;SDS011;8064;51.142;4.780;2023-12-14T00:29:09;37.80;;;21.17;;
15929;SDS011;8064;51.142;4.780;2023-12-14T00:31:34;39.73;;;20.27;;
15929;SDS011;8064;51.142;4.780;2023-12-14T00:34:00;31.77;;;19.50;;
15929;SDS011;8064;51.142;4.780;2023-12-14T00:36:26;36.70;;;19.17;;
15929;SDS011;8064;51.142;4.780;2023-12-14T00:38:52;27.40;;;17.27;;
15929;SDS011;8064;51.142;4.780;2023-12-14T00:41:17;25.40;;;15.93;;
15929;SDS011;8064;51.142;4.780;2023-12-14T00:43:43;23.40;;;15.77;;
15929;SDS011;8064;51.142;4.780;2023-12-14T00:46:09;19.13;;;13.97;;
15929;SDS011;8064;51.142;4.780;2023-12-14T00:48:36;24.47;;;14.87;;
15929;SDS011;8064;51.142;4.780;2023-12-14T00:51:02;20.27;;;14.50;;
15929;SDS011;8064;51.142;4.780;2023-12-14T00:53:28;20.67;;;14.40;;
15929;SDS011;8064;51.142;4.780;2023-12-14T00:55:53;25.07;;;15.73;;
15929;SDS011;8064;51.142;4.780;2023-12-14T00:58:19;22.30;;;15.27;;
15929;SDS011;8064;51.142;4.780;2023-12-14T01:00:45;22.60;;;15.43;;
15929;SDS011;8064;51.142;4.780;2023-12-14T01:03:11;24.20;;;15.63;;
15929;SDS011;8064;51.142;4.780;2023-12-14T01:05:37;23.57;;;13.40;;
15929;SDS011;8064;51.142;4.780;2023-12-14T01:08:03;18.10;;;12.27;;
15929;SDS011;8064;51.142;4.780;2023-12-14T01:10:29;19.53;;;13.37;;
15929;SDS011;8064;51.142;4.780;2023-12-14T01:12:55;21.97;;;14.43;;
15929;SDS011;8064;51.142;4.780;2023-12-14T01:15:21;21.40;;;14.57;;
15929;SDS011;8064;51.142;4.780;2023-12-14T01:17:46;20.47;;;14.47;;
15929;SDS011;8064;51.142;4.780;2023-12-14T01:20:12;17.90;;;13.13;;
15929;SDS011;8064;51.142;4.780;2023-12-14T01:22:38;19.33;;;12.73;;
15929;SDS011;8064;51.142;4.780;2023-12-14T01:25:03;17.27;;;12.53;;
15929;SDS011;8064;51.142;4.780;2023-12-14T01:27:29;16.00;;;11.93;;
15929;SDS011;8064;51.142;4.780;2023-12-14T01:29:55;15.33;;;11.00;;
15929;SDS011;8064;51.142;4.780;2023-12-14T01:32:21;14.47;;;11.23;;
15929;SDS011;8064;51.142;4.780;2023-12-14T01:34:47;14.70;;;11.10;;
15929;SDS011;8064;51.142;4.780;2023-12-14T01:37:12;12.80;;;9.97;;
15929;SDS011;8064;51.142;4.780;2023-12-14T01:39:38;13.33;;;10.43;;
15929;SDS011;8064;51.142;4.780;2023-12-14T01:42:04;16.23;;;11.10;;
15929;SDS011;8064;51.142;4.780;2023-12-14T01:44:30;14.50;;;10.73;;
15929;SDS011;8064;51.142;4.780;2023-12-14T01:46:55;14.30;;;10.60;;
15929;SDS011;8064;51.142;4.780;2023-12-14T01:49:21;13.23;;;10.13;;
15929;SDS011;8064;51.142;4.780;2023-12-14T01:51:47;17.37;;;11.10;;
15929;SDS011;8064;51.142;4.780;2023-12-14T01:54:13;13.53;;;10.93;;
15929;SDS011;8064;51.142;4.780;2023-12-14T01:56:38;14.63;;;10.30;;
15929;SDS011;8064;51.142;4.780;2023-12-14T01:59:05;15.17;;;10.27;;
15929;SDS011;8064;51.142;4.780;2023-12-14T02:04:01;12.83;;;10.03;;
15929;SDS011;8064;51.142;4.780;2023-12-14T02:06:26;13.37;;;9.43;;
15929;SDS011;8064;51.142;4.780;2023-12-14T02:08:52;11.97;;;9.30;;
15929;SDS011;8064;51.142;4.780;2023-12-14T02:11:18;13.27;;;9.73;;
15929;SDS011;8064;51.142;4.780;2023-12-14T02:13:44;13.07;;;9.60;;
15929;SDS011;8064;51.142;4.780;2023-12-14T02:16:09;14.30;;;9.70;;
15929;SDS011;8064;51.142;4.780;2023-12-14T02:18:35;12.03;;;9.10;;
15929;SDS011;8064;51.142;4.780;2023-12-14T02:21:02;13.60;;;9.90;;
15929;SDS011;8064;51.142;4.780;2023-12-14T02:23:27;13.03;;;9.53;;
15929;SDS011;8064;51.142;4.780;2023-12-14T02:25:53;13.63;;;9.40;;
15929;SDS011;8064;51.142;4.780;2023-12-14T02:28:19;13.20;;;9.43;;
15929;SDS011;8064;51.142;4.780;2023-12-14T02:30:45;13.43;;;10.17;;
15929;SDS011;8064;51.142;4.780;2023-12-14T02:33:10;12.97;;;9.60;;
15929;SDS011;8064;51.142;4.780;2023-12-14T02:35:36;12.40;;;9.50;;
15929;SDS011;8064;51.142;4.780;2023-12-14T02:38:02;10.80;;;9.03;;
15929;SDS011;8064;51.142;4.780;2023-12-14T02:40:28;10.13;;;7.83;;
15929;SDS011;8064;51.142;4.780;2023-12-14T02:42:53;9.27;;;8.03;;
15929;SDS011;8064;51.142;4.780;2023-12-14T02:45:19;11.17;;;8.37;;
15929;SDS011;8064;51.142;4.780;2023-12-14T02:47:45;9.63;;;8.10;;
15929;SDS011;8064;51.142;4.780;2023-12-14T02:50:12;8.77;;;7.27;;
15929;SDS011;8064;51.142;4.780;2023-12-14T02:52:38;10.33;;;7.90;;
15929;SDS011;8064;51.142;4.780;2023-12-14T02:55:04;10.70;;;8.40;;
15929;SDS011;8064;51.142;4.780;2023-12-14T02:57:30;11.67;;;9.03;;
15929;SDS011;8064;51.142;4.780;2023-12-14T02:59:56;10.07;;;8.17;;
15929;SDS011;8064;51.142;4.780;2023-12-14T03:02:22;10.43;;;8.50;;
15929;SDS011;8064;51.142;4.780;2023-12-14T03:04:47;12.10;;;9.47;;
15929;SDS011;8064;51.142;4.780;2023-12-14T03:07:13;11.37;;;9.13;;
15929;SDS011;8064;51.142;4.780;2023-12-14T03:09:39;10.10;;;8.73;;
15929;SDS011;8064;51.142;4.780;2023-12-14T03:12:08;11.90;;;8.97;;
15929;SDS011;8064;51.142;4.780;2023-12-14T03:14:34;11.40;;;8.67;;
15929;SDS011;8064;51.142;4.780;2023-12-14T03:17:00;10.33;;;8.73;;
15929;SDS011;8064;51.142;4.780;2023-12-14T03:19:26;10.77;;;8.10;;
15929;SDS011;8064;51.142;4.780;2023-12-14T03:21:51;13.03;;;9.30;;
15929;SDS011;8064;51.142;4.780;2023-12-14T03:24:17;9.57;;;8.43;;
15929;SDS011;8064;51.142;4.780;2023-12-14T03:26:43;9.40;;;8.23;;
15929;SDS011;8064;51.142;4.780;2023-12-14T03:29:09;9.83;;;8.37;;
15929;SDS011;8064;51.142;4.780;2023-12-14T03:31:34;10.70;;;8.23;;
15929;SDS011;8064;51.142;4.780;2023-12-14T03:34:00;10.53;;;8.87;;
15929;SDS011;8064;51.142;4.780;2023-12-14T03:36:27;9.87;;;8.50;;
15929;SDS011;8064;51.142;4.780;2023-12-14T03:38:53;9.20;;;7.77;;
15929;SDS011;8064;51.142;4.780;2023-12-14T03:41:19;6.93;;;6.23;;
15929;SDS011;8064;51.142;4.780;2023-12-14T03:43:45;6.70;;;6.00;;
15929;SDS011;8064;51.142;4.780;2023-12-14T03:46:11;7.00;;;5.40;;
15929;SDS011;8064;51.142;4.780;2023-12-14T03:48:37;6.00;;;5.33;;
15929;SDS011;8064;51.142;4.780;2023-12-14T03:51:03;6.50;;;5.53;;
15929;SDS011;8064;51.142;4.780;2023-12-14T03:53:29;6.57;;;5.87;;
15929;SDS011;8064;51.142;4.780;2023-12-14T03:55:55;7.03;;;6.30;;
15929;SDS011;8064;51.142;4.780;2023-12-14T03:58:22;6.70;;;5.97;;
15929;SDS011;8064;51.142;4.780;2023-12-14T04:00:47;8.10;;;6.37;;
15929;SDS011;8064;51.142;4.780;2023-12-14T04:03:13;7.17;;;6.33;;
15929;SDS011;8064;51.142;4.780;2023-12-14T04:05:39;6.80;;;6.10;;
15929;SDS011;8064;51.142;4.780;2023-12-14T04:08:05;8.07;;;6.60;;
15929;SDS011;8064;51.142;4.780;2023-12-14T04:10:30;7.80;;;6.43;;
15929;SDS011;8064;51.142;4.780;2023-12-14T04:12:56;8.03;;;7.23;;
15929;SDS011;8064;51.142;4.780;2023-12-14T04:15:22;7.50;;;6.40;;
15929;SDS011;8064;51.142;4.780;2023-12-14T04:17:47;10.43;;;7.33;;
15929;SDS011;8064;51.142;4.780;2023-12-14T04:20:13;8.47;;;6.37;;
15929;SDS011;8064;51.142;4.780;2023-12-14T04:22:41;8.27;;;6.43;;
15929;SDS011;8064;51.142;4.780;2023-12-14T04:25:08;9.70;;;7.10;;
15929;SDS011;8064;51.142;4.780;2023-12-14T04:27:34;7.57;;;6.70;;
15929;SDS011;8064;51.142;4.780;2023-12-14T04:29:59;9.50;;;7.23;;
15929;SDS011;8064;51.142;4.780;2023-12-14T04:32:25;9.63;;;7.00;;
15929;SDS011;8064;51.142;4.780;2023-12-14T04:34:51;8.90;;;8.00;;
15929;SDS011;8064;51.142;4.780;2023-12-14T04:37:17;7.93;;;7.13;;
15929;SDS011;8064;51.142;4.780;2023-12-14T04:39:43;8.13;;;7.27;;
15929;SDS011;8064;51.142;4.780;2023-12-14T04:42:09;8.30;;;7.40;;
15929;SDS011;8064;51.142;4.780;2023-12-14T04:44:35;8.00;;;7.20;;
15929;SDS011;8064;51.142;4.780;2023-12-14T04:47:00;8.20;;;7.33;;
15929;SDS011;8064;51.142;4.780;2023-12-14T04:49:26;9.10;;;7.40;;
15929;SDS011;8064;51.142;4.780;2023-12-14T04:51:52;9.90;;;7.63;;
15929;SDS011;8064;51.142;4.780;2023-12-14T04:54:18;9.63;;;8.63;;
15929;SDS011;8064;51.142;4.780;2023-12-14T04:56:45;9.57;;;8.03;;
15929;SDS011;8064;51.142;4.780;2023-12-14T04:59:11;8.90;;;7.80;;
15929;SDS011;8064;51.142;4.780;2023-12-14T05:01:37;10.47;;;8.57;;
15929;SDS011;8064;51.142;4.780;2023-12-14T05:04:02;10.80;;;8.07;;
15929;SDS011;8064;51.142;4.780;2023-12-14T05:06:29;10.70;;;8.20;;
15929;SDS011;8064;51.142;4.780;2023-12-14T05:08:55;9.43;;;7.87;;
15929;SDS011;8064;51.142;4.780;2023-12-14T05:11:20;9.20;;;7.70;;
15929;SDS011;8064;51.142;4.780;2023-12-14T05:13:46;8.83;;;7.80;;
15929;SDS011;8064;51.142;4.780;2023-12-14T05:16:13;9.73;;;8.10;;
15929;SDS011;8064;51.142;4.780;2023-12-14T05:18:39;8.60;;;7.33;;
15929;SDS011;8064;51.142;4.780;2023-12-14T05:21:05;8.83;;;7.83;;
15929;SDS011;8064;51.142;4.780;2023-12-14T05:23:31;10.20;;;8.37;;
15929;SDS011;8064;51.142;4.780;2023-12-14T05:25:57;11.07;;;8.50;;
15929;SDS011;8064;51.142;4.780;2023-12-14T05:28:22;11.33;;;9.43;;
15929;SDS011;8064;51.142;4.780;2023-12-14T05:30:48;10.47;;;9.07;;
15929;SDS011;8064;51.142;4.780;2023-12-14T05:33:14;11.40;;;8.27;;
15929;SDS011;8064;51.142;4.780;2023-12-14T05:35:40;10.97;;;8.40;;
15929;SDS011;8064;51.142;4.780;2023-12-14T05:38:05;10.57;;;8.63;;
15929;SDS011;8064;51.142;4.780;2023-12-14T05:40:31;11.03;;;9.00;;
15929;SDS011;8064;51.142;4.780;2023-12-14T05:42:57;12.80;;;8.63;;
15929;SDS011;8064;51.142;4.780;2023-12-14T05:45:23;10.40;;;8.03;;
15929;SDS011;8064;51.142;4.780;2023-12-14T05:47:49;10.37;;;8.70;;
15929;SDS011;8064;51.142;4.780;2023-12-14T05:50:16;9.67;;;8.30;;
15929;SDS011;8064;51.142;4.780;2023-12-14T05:52:41;9.77;;;8.43;;
15929;SDS011;8064;51.142;4.780;2023-12-14T05:55:08;10.57;;;8.83;;
15929;SDS011;8064;51.142;4.780;2023-12-14T05:57:35;11.07;;;9.20;;
15929;SDS011;8064;51.142;4.780;2023-12-14T06:00:01;13.10;;;8.80;;
15929;SDS011;8064;51.142;4.780;2023-12-14T06:02:29;10.37;;;9.10;;
15929;SDS011;8064;51.142;4.780;2023-12-14T06:04:56;10.67;;;8.60;;
15929;SDS011;8064;51.142;4.780;2023-12-14T06:07:23;10.80;;;8.90;;
15929;SDS011;8064;51.142;4.780;2023-12-14T06:09:49;10.83;;;8.67;;
15929;SDS011;8064;51.142;4.780;2023-12-14T06:12:14;11.03;;;9.10;;
15929;SDS011;8064;51.142;4.780;2023-12-14T06:14:40;10.13;;;8.37;;
15929;SDS011;8064;51.142;4.780;2023-12-14T06:17:06;11.67;;;8.63;;
15929;SDS011;8064;51.142;4.780;2023-12-14T06:19:32;10.30;;;9.17;;
15929;SDS011;8064;51.142;4.780;2023-12-14T06:21:57;9.63;;;8.30;;
15929;SDS011;8064;51.142;4.780;2023-12-14T06:24:23;10.87;;;8.67;;
15929;SDS011;8064;51.142;4.780;2023-12-14T06:26:49;11.87;;;9.33;;
15929;SDS011;8064;51.142;4.780;2023-12-14T06:29:15;12.17;;;9.27;;
15929;SDS011;8064;51.142;4.780;2023-12-14T06:31:40;10.27;;;8.50;;
15929;SDS011;8064;51.142;4.780;2023-12-14T06:34:06;10.70;;;8.80;;
15929;SDS011;8064;51.142;4.780;2023-12-14T06:36:33;10.47;;;8.73;;
15929;SDS011;8064;51.142;4.780;2023-12-14T06:38:59;11.17;;;8.63;;
15929;SDS011;8064;51.142;4.780;2023-12-14T06:41:26;11.70;;;8.70;;
15929;SDS011;8064;51.142;4.780;2023-12-14T06:43:53;13.33;;;9.27;;
15929;SDS011;8064;51.142;4.780;2023-12-14T06:46:20;13.37;;;9.10;;
15929;SDS011;8064;51.142;4.780;2023-12-14T06:48:46;11.77;;;8.90;;
15929;SDS011;8064;51.142;4.780;2023-12-14T06:51:12;12.70;;;9.47;;
15929;SDS011;8064;51.142;4.780;2023-12-14T06:53:40;13.10;;;8.87;;
15929;SDS011;8064;51.142;4.780;2023-12-14T06:56:08;11.73;;;9.43;;
15929;SDS011;8064;51.142;4.780;2023-12-14T06:58:36;12.80;;;9.43;;
15929;SDS011;8064;51.142;4.780;2023-12-14T07:01:03;12.63;;;8.90;;
15929;SDS011;8064;51.142;4.780;2023-12-14T07:03:30;11.63;;;9.10;;
15929;SDS011;8064;51.142;4.780;2023-12-14T07:05:55;15.63;;;9.80;;
15929;SDS011;8064;51.142;4.780;2023-12-14T07:08:22;12.67;;;9.10;;
15929;SDS011;8064;51.142;4.780;2023-12-14T07:10:48;13.40;;;9.03;;
15929;SDS011;8064;51.142;4.780;2023-12-14T07:13:14;12.50;;;9.33;;
15929;SDS011;8064;51.142;4.780;2023-12-14T07:15:40;12.53;;;9.00;;
15929;SDS011;8064;51.142;4.780;2023-12-14T07:18:05;13.67;;;10.07;;
15929;SDS011;8064;51.142;4.780;2023-12-14T07:20:31;13.87;;;9.20;;
15929;SDS011;8064;51.142;4.780;2023-12-14T07:22:57;13.30;;;10.20;;
15929;SDS011;8064;51.142;4.780;2023-12-14T07:25:23;11.07;;;9.13;;
15929;SDS011;8064;51.142;4.780;2023-12-14T07:27:49;15.43;;;10.60;;
15929;SDS011;8064;51.142;4.780;2023-12-14T07:30:15;10.60;;;8.53;;
15929;SDS011;8064;51.142;4.780;2023-12-14T07:32:41;13.20;;;9.60;;
15929;SDS011;8064;51.142;4.780;2023-12-14T07:35:07;12.97;;;9.13;;
15929;SDS011;8064;51.142;4.780;2023-12-14T07:37:33;13.87;;;9.33;;
15929;SDS011;8064;51.142;4.780;2023-12-14T07:39:59;11.27;;;8.93;;
15929;SDS011;8064;51.142;4.780;2023-12-14T07:42:25;11.23;;;8.33;;
15929;SDS011;8064;51.142;4.780;2023-12-14T07:44:51;12.60;;;9.37;;
15929;SDS011;8064;51.142;4.780;2023-12-14T07:47:17;13.80;;;9.67;;
15929;SDS011;8064;51.142;4.780;2023-12-14T07:49:43;12.67;;;8.53;;
15929;SDS011;8064;51.142;4.780;2023-12-14T07:52:09;10.93;;;8.67;;
15929;SDS011;8064;51.142;4.780;2023-12-14T07:54:35;11.80;;;8.80;;
15929;SDS011;8064;51.142;4.780;2023-12-14T07:57:01;13.73;;;8.40;;
15929;SDS011;8064;51.142;4.780;2023-12-14T07:59:27;9.40;;;8.10;;
15929;SDS011;8064;51.142;4.780;2023-12-14T08:01:54;11.93;;;8.50;;
15929;SDS011;8064;51.142;4.780;2023-12-14T08:04:20;10.30;;;8.60;;
15929;SDS011;8064;51.142;4.780;2023-12-14T08:06:46;11.07;;;8.30;;
15929;SDS011;8064;51.142;4.780;2023-12-14T08:09:12;11.87;;;8.07;;
15929;SDS011;8064;51.142;4.780;2023-12-14T08:11:38;11.70;;;8.17;;
15929;SDS011;8064;51.142;4.780;2023-12-14T08:14:03;12.73;;;8.10;;
15929;SDS011;8064;51.142;4.780;2023-12-14T08:16:29;12.60;;;8.63;;
15929;SDS011;8064;51.142;4.780;2023-12-14T08:18:55;12.70;;;8.63;;
15929;SDS011;8064;51.142;4.780;2023-12-14T08:21:20;10.33;;;8.27;;
15929;SDS011;8064;51.142;4.780;2023-12-14T08:23:46;10.07;;;8.00;;
15929;SDS011;8064;51.142;4.780;2023-12-14T08:26:12;11.27;;;8.40;;
15929;SDS011;8064;51.142;4.780;2023-12-14T08:28:39;10.63;;;7.83;;
15929;SDS011;8064;51.142;4.780;2023-12-14T08:31:05;11.47;;;8.03;;
15929;SDS011;8064;51.142;4.780;2023-12-14T08:33:31;9.70;;;7.90;;
15929;SDS011;8064;51.142;4.780;2023-12-14T08:35:57;11.77;;;7.97;;
15929;SDS011;8064;51.142;4.780;2023-12-14T08:38:23;11.37;;;7.63;;
15929;SDS011;8064;51.142;4.780;2023-12-14T08:40:49;10.53;;;8.27;;
15929;SDS011;8064;51.142;4.780;2023-12-14T08:43:16;10.97;;;7.63;;
15929;SDS011;8064;51.142;4.780;2023-12-14T08:45:44;11.10;;;8.10;;
15929;SDS011;8064;51.142;4.780;2023-12-14T08:48:10;10.63;;;7.70;;
15929;SDS011;8064;51.142;4.780;2023-12-14T08:50:36;10.80;;;7.50;;
15929;SDS011;8064;51.142;4.780;2023-12-14T08:53:02;12.20;;;7.93;;
15929;SDS011;8064;51.142;4.780;2023-12-14T08:55:29;10.80;;;7.53;;
15929;SDS011;8064;51.142;4.780;2023-12-14T08:57:55;14.23;;;7.33;;
15929;SDS011;8064;51.142;4.780;2023-12-14T09:00:21;10.23;;;7.30;;
15929;SDS011;8064;51.142;4.780;2023-12-14T09:02:47;12.67;;;8.30;;
15929;SDS011;8064;51.142;4.780;2023-12-14T09:05:13;11.23;;;7.63;;
15929;SDS011;8064;51.142;4.780;2023-12-14T09:07:39;11.10;;;8.50;;
15929;SDS011;8064;51.142;4.780;2023-12-14T09:10:05;10.50;;;7.77;;
15929;SDS011;8064;51.142;4.780;2023-12-14T09:12:32;12.47;;;7.80;;
15929;SDS011;8064;51.142;4.780;2023-12-14T09:14:59;10.40;;;7.97;;
15929;SDS011;8064;51.142;4.780;2023-12-14T09:17:26;8.87;;;7.60;;
15929;SDS011;8064;51.142;4.780;2023-12-14T09:19:58;9.87;;;7.17;;
15929;SDS011;8064;51.142;4.780;2023-12-14T09:22:25;11.17;;;7.83;;
15929;SDS011;8064;51.142;4.780;2023-12-14T09:24:51;9.57;;;7.70;;
15929;SDS011;8064;51.142;4.780;2023-12-14T09:27:18;9.73;;;7.67;;
15929;SDS011;8064;51.142;4.780;2023-12-14T09:29:44;10.27;;;7.20;;
15929;SDS011;8064;51.142;4.780;2023-12-14T09:32:09;9.93;;;7.03;;
15929;SDS011;8064;51.142;4.780;2023-12-14T09:34:35;9.10;;;6.80;;
15929;SDS011;8064;51.142;4.780;2023-12-14T09:37:01;9.13;;;6.90;;
15929;SDS011;8064;51.142;4.780;2023-12-14T09:39:27;10.13;;;6.23;;
15929;SDS011;8064;51.142;4.780;2023-12-14T09:42:00;8.70;;;6.20;;
15929;SDS011;8064;51.142;4.780;2023-12-14T09:44:29;8.00;;;6.37;;
15929;SDS011;8064;51.142;4.780;2023-12-14T09:46:55;9.50;;;6.13;;
15929;SDS011;8064;51.142;4.780;2023-12-14T09:49:23;9.30;;;6.57;;
15929;SDS011;8064;51.142;4.780;2023-12-14T09:51:54;8.87;;;6.37;;
15929;SDS011;8064;51.142;4.780;2023-12-14T09:54:21;9.20;;;6.20;;
15929;SDS011;8064;51.142;4.780;2023-12-14T09:56:48;8.27;;;6.37;;
15929;SDS011;8064;51.142;4.780;2023-12-14T09:59:14;8.70;;;6.80;;
15929;SDS011;8064;51.142;4.780;2023-12-14T10:01:40;7.27;;;6.30;;
15929;SDS011;8064;51.142;4.780;2023-12-14T10:04:07;9.13;;;6.33;;
15929;SDS011;8064;51.142;4.780;2023-12-14T10:06:35;7.80;;;5.57;;
15929;SDS011;8064;51.142;4.780;2023-12-14T10:09:02;6.53;;;5.83;;
15929;SDS011;8064;51.142;4.780;2023-12-14T10:11:29;7.90;;;5.93;;
15929;SDS011;8064;51.142;4.780;2023-12-14T10:13:55;6.63;;;5.37;;
15929;SDS011;8064;51.142;4.780;2023-12-14T10:16:27;7.70;;;5.60;;
15929;SDS011;8064;51.142;4.780;2023-12-14T10:18:55;6.55;;;4.97;;
15929;SDS011;8064;51.142;4.780;2023-12-14T10:21:22;7.17;;;5.57;;
15929;SDS011;8064;51.142;4.780;2023-12-14T10:23:48;5.82;;;5.22;;
15929;SDS011;8064;51.142;4.780;2023-12-14T10:26:14;5.35;;;4.82;;
15929;SDS011;8064;51.142;4.780;2023-12-14T10:28:40;7.43;;;5.13;;
15929;SDS011;8064;51.142;4.780;2023-12-14T10:36:20;6.40;;;4.90;;
15929;SDS011;8064;51.142;4.780;2023-12-14T10:38:52;6.23;;;4.77;;
15929;SDS011;8064;51.142;4.780;2023-12-14T10:41:20;6.93;;;5.73;;
15929;SDS011;8064;51.142;4.780;2023-12-14T10:43:48;5.00;;;4.60;;
15929;SDS011;8064;51.142;4.780;2023-12-14T10:46:16;6.83;;;5.00;;
15929;SDS011;8064;51.142;4.780;2023-12-14T10:48:43;6.13;;;5.03;;
15929;SDS011;8064;51.142;4.780;2023-12-14T10:51:11;6.07;;;5.17;;
15929;SDS011;8064;51.142;4.780;2023-12-14T10:53:37;7.63;;;4.83;;
15929;SDS011;8064;51.142;4.780;2023-12-14T10:56:04;6.00;;;5.23;;
15929;SDS011;8064;51.142;4.780;2023-12-14T10:58:52;5.73;;;5.00;;
15929;SDS011;8064;51.142;4.780;2023-12-14T11:01:19;5.43;;;4.93;;
15929;SDS011;8064;51.142;4.780;2023-12-14T11:03:48;8.47;;;5.50;;
15929;SDS011;8064;51.142;4.780;2023-12-14T11:06:20;7.73;;;5.20;;
15929;SDS011;8064;51.142;4.780;2023-12-14T11:08:47;6.50;;;5.30;;
15929;SDS011;8064;51.142;4.780;2023-12-14T11:11:14;5.97;;;4.80;;
15929;SDS011;8064;51.142;4.780;2023-12-14T11:13:50;6.93;;;5.67;;
15929;SDS011;8064;51.142;4.780;2023-12-14T11:16:20;5.80;;;5.23;;
15929;SDS011;8064;51.142;4.780;2023-12-14T11:18:47;7.50;;;5.67;;
15929;SDS011;8064;51.142;4.780;2023-12-14T11:23:57;5.40;;;4.63;;
15929;SDS011;8064;51.142;4.780;2023-12-14T11:26:26;7.23;;;5.60;;
15929;SDS011;8064;51.142;4.780;2023-12-14T11:28:53;7.13;;;5.13;;
15929;SDS011;8064;51.142;4.780;2023-12-14T11:31:19;9.83;;;5.00;;
15929;SDS011;8064;51.142;4.780;2023-12-14T11:33:46;6.73;;;5.43;;
15929;SDS011;8064;51.142;4.780;2023-12-14T11:36:13;6.77;;;4.90;;
15929;SDS011;8064;51.142;4.780;2023-12-14T11:38:39;9.03;;;5.17;;
15929;SDS011;8064;51.142;4.780;2023-12-14T11:41:05;5.63;;;5.00;;
15929;SDS011;8064;51.142;4.780;2023-12-14T11:43:38;7.70;;;5.30;;
15929;SDS011;8064;51.142;4.780;2023-12-14T11:46:05;5.97;;;5.00;;
15929;SDS011;8064;51.142;4.780;2023-12-14T11:48:31;8.17;;;4.80;;
15929;SDS011;8064;51.142;4.780;2023-12-14T11:50:57;6.13;;;4.37;;
15929;SDS011;8064;51.142;4.780;2023-12-14T11:53:22;7.67;;;4.70;;
15929;SDS011;8064;51.142;4.780;2023-12-14T11:55:49;7.80;;;5.17;;
15929;SDS011;8064;51.142;4.780;2023-12-14T11:58:16;7.83;;;4.53;;
15929;SDS011;8064;51.142;4.780;2023-12-14T12:00:42;6.17;;;4.63;;
15929;SDS011;8064;51.142;4.780;2023-12-14T12:03:18;6.70;;;4.33;;
15929;SDS011;8064;51.142;4.780;2023-12-14T12:05:46;8.77;;;4.87;;
15929;SDS011;8064;51.142;4.780;2023-12-14T12:08:15;9.73;;;4.93;;
15929;SDS011;8064;51.142;4.780;2023-12-14T12:10:43;8.37;;;4.70;;
15929;SDS011;8064;51.142;4.780;2023-12-14T12:13:11;7.60;;;4.47;;
15929;SDS011;8064;51.142;4.780;2023-12-14T12:15:39;6.10;;;3.97;;
15929;SDS011;8064;51.142;4.780;2023-12-14T12:18:06;7.63;;;4.10;;
15929;SDS011;8064;51.142;4.780;2023-12-14T12:20:35;7.07;;;4.33;;
15929;SDS011;8064;51.142;4.780;2023-12-14T12:23:01;7.33;;;3.80;;
15929;SDS011;8064;51.142;4.780;2023-12-14T12:25:29;6.07;;;4.00;;
15929;SDS011;8064;51.142;4.780;2023-12-14T12:27:56;7.80;;;4.43;;
15929;SDS011;8064;51.142;4.780;2023-12-14T12:30:23;6.87;;;4.70;;
15929;SDS011;8064;51.142;4.780;2023-12-14T12:32:49;8.70;;;4.60;;
15929;SDS011;8064;51.142;4.780;2023-12-14T12:35:17;7.23;;;4.70;;
15929;SDS011;8064;51.142;4.780;2023-12-14T12:37:44;7.33;;;4.53;;
15929;SDS011;8064;51.142;4.780;2023-12-14T12:40:10;8.00;;;4.93;;
15929;SDS011;8064;51.142;4.780;2023-12-14T12:42:36;8.30;;;4.87;;
15929;SDS011;8064;51.142;4.780;2023-12-14T12:45:02;8.90;;;5.00;;
15929;SDS011;8064;51.142;4.780;2023-12-14T12:47:29;7.67;;;5.40;;
15929;SDS011;8064;51.142;4.780;2023-12-14T12:49:55;8.67;;;5.10;;
15929;SDS011;8064;51.142;4.780;2023-12-14T12:52:21;8.20;;;4.80;;
15929;SDS011;8064;51.142;4.780;2023-12-14T12:54:47;7.63;;;4.77;;
15929;SDS011;8064;51.142;4.780;2023-12-14T12:57:13;9.30;;;5.10;;
15929;SDS011;8064;51.142;4.780;2023-12-14T12:59:38;6.53;;;4.80;;
15929;SDS011;8064;51.142;4.780;2023-12-14T13:02:04;6.37;;;5.00;;
15929;SDS011;8064;51.142;4.780;2023-12-14T13:04:30;8.27;;;5.37;;
15929;SDS011;8064;51.142;4.780;2023-12-14T13:06:56;7.43;;;5.37;;
15929;SDS011;8064;51.142;4.780;2023-12-14T13:09:22;6.67;;;4.93;;
15929;SDS011;8064;51.142;4.780;2023-12-14T13:11:48;8.33;;;5.97;;
15929;SDS011;8064;51.142;4.780;2023-12-14T13:14:15;7.80;;;5.70;;
15929;SDS011;8064;51.142;4.780;2023-12-14T13:16:41;7.50;;;5.77;;
15929;SDS011;8064;51.142;4.780;2023-12-14T13:19:08;9.97;;;6.17;;
15929;SDS011;8064;51.142;4.780;2023-12-14T13:21:34;8.40;;;5.60;;
15929;SDS011;8064;51.142;4.780;2023-12-14T13:24:01;8.50;;;5.47;;
15929;SDS011;8064;51.142;4.780;2023-12-14T13:26:27;9.20;;;5.77;;
15929;SDS011;8064;51.142;4.780;2023-12-14T13:28:53;8.13;;;5.47;;
15929;SDS011;8064;51.142;4.780;2023-12-14T13:31:19;7.87;;;6.00;;
15929;SDS011;8064;51.142;4.780;2023-12-14T13:33:46;9.33;;;5.73;;
15929;SDS011;8064;51.142;4.780;2023-12-14T13:36:13;7.07;;;5.23;;
15929;SDS011;8064;51.142;4.780;2023-12-14T13:38:40;9.33;;;5.57;;
15929;SDS011;8064;51.142;4.780;2023-12-14T13:41:07;8.33;;;5.73;;
15929;SDS011;8064;51.142;4.780;2023-12-14T13:43:34;6.70;;;5.30;;
15929;SDS011;8064;51.142;4.780;2023-12-14T13:45:59;9.13;;;6.00;;
15929;SDS011;8064;51.142;4.780;2023-12-14T13:48:26;6.80;;;4.73;;
15929;SDS011;8064;51.142;4.780;2023-12-14T13:50:52;7.63;;;5.30;;
15929;SDS011;8064;51.142;4.780;2023-12-14T13:53:19;12.33;;;5.43;;
15929;SDS011;8064;51.142;4.780;2023-12-14T13:55:45;6.30;;;4.13;;
15929;SDS011;8064;51.142;4.780;2023-12-14T13:58:11;7.17;;;3.90;;
15929;SDS011;8064;51.142;4.780;2023-12-14T14:00:37;8.97;;;3.90;;
15929;SDS011;8064;51.142;4.780;2023-12-14T14:03:04;8.60;;;3.93;;
15929;SDS011;8064;51.142;4.780;2023-12-14T14:05:31;5.57;;;3.90;;
15929;SDS011;8064;51.142;4.780;2023-12-14T14:07:58;7.37;;;4.30;;
15929;SDS011;8064;51.142;4.780;2023-12-14T14:10:25;7.13;;;4.40;;
15929;SDS011;8064;51.142;4.780;2023-12-14T14:12:51;9.43;;;3.80;;
15929;SDS011;8064;51.142;4.780;2023-12-14T14:15:17;7.00;;;4.10;;
15929;SDS011;8064;51.142;4.780;2023-12-14T14:17:44;6.10;;;3.57;;
15929;SDS011;8064;51.142;4.780;2023-12-14T14:20:13;7.53;;;4.00;;
15929;SDS011;8064;51.142;4.780;2023-12-14T14:22:39;5.90;;;3.83;;
15929;SDS011;8064;51.142;4.780;2023-12-14T14:25:05;11.77;;;4.60;;
15929;SDS011;8064;51.142;4.780;2023-12-14T14:27:32;11.10;;;4.40;;
15929;SDS011;8064;51.142;4.780;2023-12-14T14:29:58;5.80;;;4.20;;
15929;SDS011;8064;51.142;4.780;2023-12-14T14:32:24;6.17;;;4.50;;
15929;SDS011;8064;51.142;4.780;2023-12-14T14:34:51;8.90;;;4.97;;
15929;SDS011;8064;51.142;4.780;2023-12-14T14:37:18;9.47;;;4.77;;
15929;SDS011;8064;51.142;4.780;2023-12-14T14:39:44;7.43;;;4.53;;
15929;SDS011;8064;51.142;4.780;2023-12-14T14:42:10;7.10;;;4.30;;
15929;SDS011;8064;51.142;4.780;2023-12-14T14:44:35;6.70;;;4.40;;
15929;SDS011;8064;51.142;4.780;2023-12-14T14:47:01;9.70;;;4.63;;
15929;SDS011;8064;51.142;4.780;2023-12-14T14:49:28;10.77;;;5.30;;
15929;SDS011;8064;51.142;4.780;2023-12-14T14:51:54;10.73;;;5.40;;
15929;SDS011;8064;51.142;4.780;2023-12-14T14:54:20;5.97;;;4.53;;
15929;SDS011;8064;51.142;4.780;2023-12-14T14:56:46;7.47;;;4.60;;
15929;SDS011;8064;51.142;4.780;2023-12-14T14:59:12;7.67;;;4.67;;